Kezdőlap
METAR-TAF:

METAR-TAF

Repülőterek :

Joensuu, Finnország

földrajzi szélesség: 62-40N, földrajzi hosszúság: 029-38E, magasság: 119 m

Jelenlegi meteorológiai megfigyelések

A jelentés 16 perccel ezelõtt készült, 04:50 UTC
Különbözõ irányokból fújó szél 2 kt
Hőmérséklet -4°C
Páratartalom 100%
Légköri nyomás 1006 hPa
Látótávolság: 3000 m
Párásság

METAR: EFJO 250450Z AUTO VRB02KT 3000 BR VV003 M04/M04 Q1006 REFZUP

Idő: 07:06 (05:06 UTC)

Előrejelzés

A jelentés 14 órával és 36 perccel ezelõtt készült, 14:30 UTC
Az előrejelzés 24-én 15 óra UTC és 24-én 18 óra UTC között érvényes
Dél-délkeleti szél 12 kt
Látótávolság: 5000 m
Borult 2200 lábon
enyhe havazás
24-én 15 óra UTC és 24-én 18 óra UTC között ideiglenes
Látótávolság: 1200 m
800 lábon

TAF: EFJO 241430Z 2415/2418 16012KT 5000 -SN OVC022 TEMPO 2415/2418 1200 SN VV008

Meteorológiai megfigyelések és előrejelzések több, mint 4000 repülőtéren (METAR és TAF jelentéseket).

A térképen piros és sárga pontok jelzik az elérhető meteorológiai állomásokat.

Mozgassa az egeret a pont fölött, hogy megjelenjen az állomás neve.

Azután kattintson az időjárási megfigyelések és előrejelzések megtekintéséhez.

A térkép megváltoztatása: kattintson a fekete keresztel jelölt zöld gombra ráközelítéshez, a vonallal jelölt zöld gombra távolításhoz, vagy a zöld nyilakra a szomszédos térképek eléréséhez.


METAR-TAF: